Time;durP1;ratioP1;P1;durP2;ratioP2;P2;SDS_P1;SDS_P2;PMS_P1;PMS_P2;Temp;Humidity;BMP_temperature;BMP_pressure;BME280_temperature;BME280_humidity;BME280_pressure;Samples;Min_cycle;Max_cycle;Signal;HPM_P1;HPM_P2
2022/12/29 00:02:09;;;;;;;2.97;1.20;;;9.00;96.90;;;;;;4988233;28;20057;-66
2022/12/29 00:04:35;;;;;;;1.63;1.08;;;8.90;96.80;;;;;;4996677;28;20478;-67
2022/12/29 00:07:00;;;;;;;3.13;1.10;;;8.90;96.60;;;;;;4994065;28;20040;-66
2022/12/29 00:09:26;;;;;;;1.30;0.98;;;8.90;96.90;;;;;;4994167;28;20531;-66
2022/12/29 00:11:52;;;;;;;2.88;1.05;;;8.90;96.90;;;;;;4995936;28;20482;-66
2022/12/29 00:17:03;;;;;;;3.50;1.38;;;8.90;96.80;;;;;;4998043;28;20026;-70
2022/12/29 00:35:59;;;;;;;0.85;0.85;;;9.00;96.80;;;;;;4992035;28;20035;-66
2022/12/29 00:44:06;;;;;;;2.45;1.08;;;9.10;96.90;;;;;;4997081;28;20027;-67
2022/12/29 00:46:33;;;;;;;1.58;1.10;;;9.10;96.70;;;;;;4997599;28;20091;-67
2022/12/29 00:51:45;;;;;;;3.13;1.02;;;9.10;96.60;;;;;;4995816;28;20091;-66
2022/12/29 00:54:12;;;;;;;1.35;1.17;;;9.00;96.80;;;;;;5028752;28;20699;-64
2022/12/29 00:56:38;;;;;;;1.77;0.98;;;9.10;96.70;;;;;;4990561;28;20026;-65
2022/12/29 00:59:07;;;;;;;2.00;1.20;;;8.90;96.90;;;;;;4987959;28;20080;-65
2022/12/29 01:01:36;;;;;;;1.50;1.17;;;8.90;97.00;;;;;;4984676;28;20029;-65
2022/12/29 01:04:03;;;;;;;3.30;1.38;;;8.90;97.10;;;;;;4983682;28;20026;-65
2022/12/29 01:06:29;;;;;;;2.25;1.20;;;8.90;96.90;;;;;;4996057;28;20113;-66
2022/12/29 01:11:39;;;;;;;2.30;1.05;;;9.00;96.80;;;;;;4993690;28;20125;-65
2022/12/29 01:14:06;;;;;;;1.20;0.93;;;9.00;96.40;;;;;;4994466;28;20033;-65
2022/12/29 01:16:33;;;;;;;6.95;1.10;;;9.00;96.30;;;;;;5021766;28;20108;-65
2022/12/29 01:18:59;;;;;;;1.25;0.98;;;9.00;96.70;;;;;;4995587;28;20064;-66
2022/12/29 01:21:25;;;;;;;1.48;0.90;;;9.20;96.30;;;;;;4994643;28;20057;-65
2022/12/29 01:23:51;;;;;;;1.80;1.17;;;9.20;96.30;;;;;;4992131;28;20038;-65
2022/12/29 01:26:17;;;;;;;1.65;1.20;;;9.10;96.80;;;;;;4995522;28;20030;-65
2022/12/29 01:28:43;;;;;;;3.38;1.77;;;9.10;96.60;;;;;;5027610;28;20072;-65
2022/12/29 01:31:11;;;;;;;1.77;1.30;;;9.10;96.60;;;;;;4991911;28;20054;-65
2022/12/29 01:33:37;;;;;;;1.98;1.10;;;9.10;96.80;;;;;;4989904;28;20036;-65
2022/12/29 01:36:04;;;;;;;4.80;1.20;;;9.00;97.10;;;;;;5019292;28;20034;-65
2022/12/29 01:38:31;;;;;;;2.03;1.10;;;9.00;97.20;;;;;;4988509;28;20026;-65
2022/12/29 01:40:56;;;;;;;2.58;1.10;;;9.00;97.30;;;;;;4991509;28;20027;-65
2022/12/29 01:43:38;;;;;;;1.83;1.20;;;9.10;96.90;;;;;;4998426;28;20057;-66
2022/12/29 01:46:08;;;;;;;1.00;0.90;;;9.10;97.10;;;;;;4996555;28;20725;-65
2022/12/29 01:48:34;;;;;;;2.08;1.10;;;9.10;96.90;;;;;;4994945;28;20456;-65
2022/12/29 01:51:00;;;;;;;3.45;1.30;;;9.10;96.80;;;;;;4994644;28;20033;-65
2022/12/29 01:53:29;;;;;;;2.90;1.35;;;9.20;96.70;;;;;;4995884;28;20022;-66
2022/12/29 01:55:59;;;;;;;3.20;1.10;;;9.20;96.00;;;;;;4993046;28;20034;-66
2022/12/29 01:58:30;;;;;;;3.15;2.35;;;9.10;96.10;;;;;;4993412;28;20543;-66
2022/12/29 02:00:56;;;;;;;1.42;1.15;;;9.20;95.70;;;;;;4988455;28;20026;-66
2022/12/29 02:03:26;;;;;;;1.88;1.05;;;9.30;95.70;;;;;;4993142;28;20038;-66
2022/12/29 02:05:55;;;;;;;2.08;1.20;;;9.20;95.50;;;;;;4998991;28;20033;-66
2022/12/29 02:08:24;;;;;;;1.05;0.90;;;9.30;95.50;;;;;;4990357;28;20026;-66
2022/12/29 02:10:50;;;;;;;1.98;1.13;;;9.30;95.10;;;;;;4988906;28;20113;-66
2022/12/29 02:13:17;;;;;;;1.77;0.90;;;9.30;95.00;;;;;;4991151;28;20034;-66
2022/12/29 02:15:56;;;;;;;4.32;1.15;;;9.30;95.10;;;;;;5017746;28;20092;-66
2022/12/29 02:18:51;;;;;;;2.50;0.80;;;9.40;94.60;;;;;;5024334;28;20021;-66
2022/12/29 02:21:45;;;;;;;1.20;0.90;;;9.40;94.70;;;;;;4994419;28;20125;-66
2022/12/29 02:24:14;;;;;;;1.85;1.00;;;9.50;94.60;;;;;;4994474;28;20056;-66
2022/12/29 02:26:49;;;;;;;2.25;1.27;;;9.50;94.30;;;;;;4997059;28;20030;-66
2022/12/29 02:29:14;;;;;;;5.88;1.20;;;9.50;94.30;;;;;;5021606;28;20033;-67
2022/12/29 02:32:00;;;;;;;2.97;1.13;;;9.50;94.30;;;;;;4992974;28;20072;-66
2022/12/29 02:34:54;;;;;;;2.20;1.27;;;9.60;94.40;;;;;;4990029;28;20034;-66
2022/12/29 02:37:35;;;;;;;2.67;1.25;;;9.60;93.50;;;;;;4997530;28;20586;-65
2022/12/29 02:40:07;;;;;;;2.05;1.08;;;9.60;93.60;;;;;;4984231;28;20030;-66
2022/12/29 02:43:00;;;;;;;3.10;0.90;;;9.60;93.90;;;;;;4998458;28;20053;-66
2022/12/29 02:45:30;;;;;;;1.27;0.90;;;9.70;93.70;;;;;;5023723;28;20065;-66
2022/12/29 02:48:25;;;;;;;1.80;1.00;;;9.70;93.50;;;;;;4990062;28;20085;-66
2022/12/29 02:51:07;;;;;;;3.30;1.10;;;9.70;93.40;;;;;;5013500;28;20039;-66
2022/12/29 02:56:19;;;;;;;4.05;0.95;;;9.80;93.40;;;;;;4996046;28;20184;-66
2022/12/29 02:58:46;;;;;;;2.17;1.20;;;9.90;93.30;;;;;;4993973;28;20574;-66
2022/12/29 03:01:32;;;;;;;0.95;0.80;;;9.90;93.10;;;;;;4996203;28;20068;-66
2022/12/29 03:04:10;;;;;;;1.00;0.90;;;10.00;93.10;;;;;;4998992;28;20030;-66
2022/12/29 03:06:56;;;;;;;1.65;0.80;;;10.00;93.00;;;;;;5025416;28;20052;-65
2022/12/29 03:09:21;;;;;;;1.23;1.02;;;9.80;93.00;;;;;;4992583;28;20061;-66
2022/12/29 03:12:22;;;;;;;3.53;0.98;;;9.80;93.70;;;;;;5019932;28;20030;-66
2022/12/29 03:18:19;;;;;;;2.60;1.20;;;9.90;93.40;;;;;;4985304;28;20025;-66
2022/12/29 03:20:55;;;;;;;0.70;0.70;;;10.00;93.20;;;;;;4986366;28;20042;-66
2022/12/29 03:23:25;;;;;;;1.15;0.73;;;10.00;93.40;;;;;;4991999;28;20135;-66
2022/12/29 03:25:57;;;;;;;2.65;0.90;;;10.10;93.20;;;;;;4991434;28;20030;-66
2022/12/29 03:28:31;;;;;;;3.38;1.00;;;10.10;93.20;;;;;;4993142;28;20034;-66
2022/12/29 03:30:59;;;;;;;2.83;0.82;;;10.20;92.90;;;;;;4992603;28;20038;-66
2022/12/29 03:33:29;;;;;;;6.38;1.08;;;10.10;92.90;;;;;;5023835;28;20173;-66
2022/12/29 03:36:03;;;;;;;2.10;0.90;;;10.10;93.00;;;;;;4989277;28;20029;-66
2022/12/29 03:38:40;;;;;;;2.92;1.20;;;10.10;93.10;;;;;;5021916;28;20026;-66
2022/12/29 03:41:10;;;;;;;6.90;1.17;;;10.00;93.20;;;;;;4995973;28;20041;-66
2022/12/29 03:43:36;;;;;;;0.82;0.73;;;10.00;93.20;;;;;;5021004;28;20120;-65
2022/12/29 03:46:02;;;;;;;2.97;0.98;;;10.00;93.30;;;;;;4988360;28;20030;-66
2022/12/29 03:48:28;;;;;;;1.63;1.08;;;10.10;93.40;;;;;;4987742;28;20026;-66
2022/12/29 03:50:55;;;;;;;0.82;0.77;;;10.20;93.30;;;;;;5015190;28;20034;-65
2022/12/29 03:53:22;;;;;;;3.75;1.30;;;10.20;93.00;;;;;;4982510;28;20061;-65
2022/12/29 03:55:49;;;;;;;1.52;1.00;;;10.20;93.10;;;;;;4992010;28;20029;-66
2022/12/29 03:58:15;;;;;;;1.85;1.00;;;10.20;93.00;;;;;;4990839;28;20037;-66
2022/12/29 04:01:05;;;;;;;3.00;0.93;;;10.30;93.10;;;;;;4990879;28;20507;-65
2022/12/29 04:03:33;;;;;;;1.00;0.90;;;10.20;93.30;;;;;;4993139;28;20037;-66
2022/12/29 04:05:59;;;;;;;1.60;1.08;;;10.30;93.00;;;;;;5025381;28;20498;-67
2022/12/29 04:08:26;;;;;;;1.88;0.98;;;10.30;93.00;;;;;;5023222;28;20541;-66
2022/12/29 04:10:52;;;;;;;1.85;1.00;;;10.40;92.60;;;;;;5021229;28;20058;-66
2022/12/29 04:13:21;;;;;;;1.38;1.10;;;10.40;92.70;;;;;;4993611;28;20025;-66
2022/12/29 04:15:46;;;;;;;1.27;1.00;;;10.30;92.90;;;;;;4992322;28;20064;-67
2022/12/29 04:18:13;;;;;;;2.50;0.90;;;10.30;92.70;;;;;;4992129;28;20688;-66
2022/12/29 04:23:23;;;;;;;1.33;0.90;;;10.20;93.30;;;;;;4988529;28;20031;-67
2022/12/29 04:25:49;;;;;;;1.10;1.00;;;10.30;93.00;;;;;;4989882;28;20037;-67
2022/12/29 04:28:17;;;;;;;1.40;1.15;;;10.30;93.10;;;;;;5021586;28;20031;-69
2022/12/29 04:30:57;;;;;;;2.25;0.82;;;10.40;92.90;;;;;;4977195;28;20463;-67
2022/12/29 04:33:27;;;;;;;2.65;0.90;;;10.40;93.00;;;;;;4994859;28;20042;-66
2022/12/29 04:35:53;;;;;;;3.78;1.50;;;10.40;92.70;;;;;;4992650;28;20022;-67
2022/12/29 04:38:22;;;;;;;2.85;1.23;;;10.40;92.80;;;;;;4990756;28;20030;-66
2022/12/29 04:40:50;;;;;;;1.13;0.93;;;10.40;93.00;;;;;;5019347;28;20525;-67
2022/12/29 04:43:22;;;;;;;4.68;1.10;;;10.30;93.10;;;;;;4991374;28;20735;-66
2022/12/29 04:46:10;;;;;;;1.80;1.00;;;10.40;93.10;;;;;;4981627;28;20038;-67
2022/12/29 04:49:09;;;;;;;2.00;1.17;;;10.30;93.10;;;;;;4973383;28;20033;-68
2022/12/29 04:51:57;;;;;;;1.30;0.90;;;10.20;93.30;;;;;;4984913;28;20149;-69
2022/12/29 04:54:23;;;;;;;1.77;1.00;;;10.20;93.40;;;;;;4997400;28;20148;-68
2022/12/29 04:57:09;;;;;;;1.02;0.82;;;10.30;93.50;;;;;;4990628;28;20521;-67
2022/12/29 04:59:37;;;;;;;2.60;1.25;;;10.30;93.30;;;;;;4992919;28;20064;-68
2022/12/29 05:02:04;;;;;;;1.65;1.10;;;10.40;93.40;;;;;;4990053;28;20050;-67
2022/12/29 05:04:33;;;;;;;2.13;1.10;;;10.40;93.30;;;;;;4990696;28;20034;-67
2022/12/29 05:06:59;;;;;;;2.80;1.20;;;10.30;93.40;;;;;;4994189;28;20084;-67
2022/12/29 05:09:25;;;;;;;1.65;0.98;;;10.30;93.60;;;;;;5025488;28;20057;-68
2022/12/29 05:11:51;;;;;;;1.58;1.20;;;10.40;93.60;;;;;;5025503;28;20805;-67
2022/12/29 05:14:17;;;;;;;2.00;1.30;;;10.50;93.50;;;;;;4997043;28;20033;-67
2022/12/29 05:16:42;;;;;;;1.67;1.00;;;10.40;93.50;;;;;;4994005;28;20121;-67
2022/12/29 05:19:09;;;;;;;2.67;1.08;;;10.40;93.80;;;;;;4995091;28;20022;-67
2022/12/29 05:21:35;;;;;;;1.77;1.20;;;10.50;93.60;;;;;;5001213;28;20041;-67
2022/12/29 05:24:01;;;;;;;1.88;0.85;;;10.50;93.70;;;;;;4990820;28;20113;-67
2022/12/29 05:26:28;;;;;;;1.38;0.98;;;10.60;93.50;;;;;;4991299;28;20748;-67
2022/12/29 05:29:08;;;;;;;2.63;1.27;;;10.60;93.40;;;;;;5026064;28;20052;-67
2022/12/29 05:31:35;;;;;;;2.03;1.10;;;10.60;93.60;;;;;;4998530;28;20032;-67
2022/12/29 05:34:02;;;;;;;1.15;1.02;;;10.50;93.70;;;;;;5025670;28;20109;-67
2022/12/29 05:36:29;;;;;;;1.98;1.05;;;10.50;93.90;;;;;;4991466;28;20124;-67
2022/12/29 05:38:58;;;;;;;2.17;1.10;;;10.50;93.90;;;;;;4990643;28;20022;-67
2022/12/29 05:41:24;;;;;;;1.10;1.00;;;10.50;93.90;;;;;;4989703;28;20612;-67
2022/12/29 05:44:13;;;;;;;1.88;0.95;;;10.60;93.90;;;;;;4989955;28;20069;-67
2022/12/29 05:47:02;;;;;;;1.02;0.90;;;10.60;93.90;;;;;;4980174;28;20038;-67
2022/12/29 05:49:43;;;;;;;2.20;0.88;;;10.60;93.70;;;;;;4994198;28;20044;-67
2022/12/29 05:52:19;;;;;;;;;;;10.60;93.80;;;;;;4997446;28;20099;-67
2022/12/29 05:54:45;;;;;;;2.20;1.23;;;10.60;93.80;;;;;;4995018;28;19909;-67
2022/12/29 05:57:15;;;;;;;1.67;0.80;;;10.70;93.60;;;;;;5024353;28;20121;-67
2022/12/29 05:59:43;;;;;;;2.42;0.77;;;10.60;93.70;;;;;;4989629;28;20029;-67
2022/12/29 06:02:09;;;;;;;2.25;1.08;;;10.70;93.80;;;;;;4988066;28;20026;-67
2022/12/29 06:04:35;;;;;;;3.17;0.90;;;10.80;93.60;;;;;;4985766;28;20227;-67
2022/12/29 06:07:02;;;;;;;1.73;1.10;;;10.80;93.60;;;;;;4983111;28;20132;-68
2022/12/29 06:09:36;;;;;;;3.95;1.10;;;10.80;93.80;;;;;;4992761;28;20599;-67
2022/12/29 06:12:04;;;;;;;1.52;1.00;;;10.90;93.40;;;;;;4990736;28;20134;-68
2022/12/29 06:14:31;;;;;;;1.40;1.00;;;10.80;93.60;;;;;;4991872;28;20524;-68
2022/12/29 06:16:58;;;;;;;2.78;0.80;;;10.80;93.50;;;;;;4993567;28;20022;-68
2022/12/29 06:19:24;;;;;;;4.05;0.80;;;10.80;93.60;;;;;;4988770;28;20108;-68
2022/12/29 06:21:51;;;;;;;1.08;0.60;;;10.90;93.50;;;;;;4988366;28;20029;-68
2022/12/29 06:24:17;;;;;;;1.70;1.25;;;10.90;93.60;;;;;;4993013;28;20113;-68
2022/12/29 06:26:43;;;;;;;0.93;0.75;;;10.90;93.40;;;;;;4991119;28;20033;-68
2022/12/29 06:29:09;;;;;;;1.73;1.08;;;10.90;93.50;;;;;;4991723;28;20387;-67
2022/12/29 06:31:36;;;;;;;2.28;0.98;;;10.90;93.60;;;;;;4990190;28;20041;-68
2022/12/29 06:34:02;;;;;;;1.67;1.10;;;10.80;93.80;;;;;;4993022;28;20030;-68
2022/12/29 06:36:28;;;;;;;1.85;0.90;;;10.80;93.70;;;;;;4987082;28;20037;-68
2022/12/29 06:38:54;;;;;;;1.83;1.00;;;10.80;93.80;;;;;;4983810;28;20030;-68
2022/12/29 06:41:22;;;;;;;1.60;0.98;;;10.80;93.80;;;;;;4991650;28;20029;-68
2022/12/29 06:44:06;;;;;;;0.90;0.77;;;10.80;93.90;;;;;;4986751;28;20509;-68
2022/12/29 06:46:55;;;;;;;0.98;0.75;;;10.80;93.80;;;;;;4990166;28;20042;-68
2022/12/29 06:49:21;;;;;;;1.35;1.00;;;10.70;94.10;;;;;;4991649;28;20693;-68
2022/12/29 06:51:47;;;;;;;0.52;0.52;;;10.70;94.30;;;;;;4990199;28;20037;-68
2022/12/29 06:54:13;;;;;;;2.17;0.70;;;10.70;94.40;;;;;;4991274;28;20037;-68
2022/12/29 06:56:39;;;;;;;2.50;1.00;;;10.70;94.40;;;;;;4985115;28;20026;-68
2022/12/29 06:59:05;;;;;;;5.13;1.00;;;10.80;94.10;;;;;;4993845;28;20034;-68
2022/12/29 07:01:30;;;;;;;1.20;1.05;;;10.80;94.20;;;;;;4993029;28;20044;-68
2022/12/29 07:03:57;;;;;;;1.65;0.85;;;10.80;94.20;;;;;;4993557;28;20026;-68
2022/12/29 07:06:23;;;;;;;1.13;0.90;;;10.80;94.30;;;;;;4987240;28;20031;-68
2022/12/29 07:08:48;;;;;;;2.70;0.80;;;10.70;94.50;;;;;;4992436;28;20040;-68
2022/12/29 07:11:14;;;;;;;3.97;1.10;;;10.70;94.70;;;;;;4994778;28;20044;-68
2022/12/29 07:13:40;;;;;;;0.98;0.70;;;10.60;94.80;;;;;;4984985;28;20387;-68
2022/12/29 07:16:08;;;;;;;1.00;0.75;;;10.60;94.90;;;;;;4989757;28;20191;-68
2022/12/29 07:18:35;;;;;;;0.80;0.80;;;10.70;94.80;;;;;;4990206;28;20040;-67
2022/12/29 07:21:01;;;;;;;3.67;0.85;;;10.70;94.60;;;;;;4990168;28;20033;-67
2022/12/29 07:23:27;;;;;;;0.70;0.70;;;10.80;94.40;;;;;;4986216;28;20046;-66
2022/12/29 07:26:05;;;;;;;0.98;0.60;;;10.90;94.30;;;;;;4995066;28;20048;-67
2022/12/29 07:28:32;;;;;;;1.20;0.70;;;10.90;94.10;;;;;;4987463;28;20398;-67
2022/12/29 07:30:58;;;;;;;0.82;0.75;;;10.90;94.00;;;;;;4989774;28;20034;-67
2022/12/29 07:33:24;;;;;;;0.90;0.70;;;10.90;94.20;;;;;;4993900;28;20780;-67
2022/12/29 07:35:50;;;;;;;2.55;0.70;;;10.90;94.30;;;;;;4989627;28;20118;-67
2022/12/29 07:38:16;;;;;;;3.03;0.98;;;10.80;94.40;;;;;;4991778;28;20026;-67
2022/12/29 07:40:42;;;;;;;0.93;0.65;;;10.80;94.50;;;;;;4984527;28;20478;-67
2022/12/29 07:43:08;;;;;;;1.10;0.80;;;10.80;94.50;;;;;;4987176;28;20057;-67
2022/12/29 07:45:43;;;;;;;1.35;0.95;;;10.80;94.50;;;;;;4989365;28;20064;-67
2022/12/29 07:48:09;;;;;;;1.20;0.88;;;10.80;94.50;;;;;;4997341;28;20469;-67
2022/12/29 07:50:36;;;;;;;0.98;0.70;;;10.70;94.80;;;;;;4986356;28;20052;-67
2022/12/29 07:53:02;;;;;;;1.25;0.63;;;10.70;94.80;;;;;;4986321;28;20026;-67
2022/12/29 07:55:28;;;;;;;1.40;0.80;;;10.70;94.80;;;;;;4985300;28;20041;-67
2022/12/29 07:57:55;;;;;;;1.63;1.05;;;10.70;94.80;;;;;;4989627;28;20030;-67
2022/12/29 08:00:21;;;;;;;1.77;0.70;;;10.70;95.00;;;;;;4993309;28;20029;-68
2022/12/29 08:02:47;;;;;;;2.47;0.90;;;10.70;94.80;;;;;;4992402;28;20117;-67
2022/12/29 08:05:12;;;;;;;1.55;0.82;;;10.70;94.80;;;;;;4992948;28;20733;-67
2022/12/29 08:07:38;;;;;;;1.00;0.60;;;10.70;94.60;;;;;;4988375;28;20751;-67
2022/12/29 08:10:05;;;;;;;2.25;0.88;;;10.70;94.80;;;;;;4991595;28;20085;-67
2022/12/29 08:12:31;;;;;;;0.77;0.68;;;10.80;94.50;;;;;;4988326;28;20040;-67
2022/12/29 08:14:56;;;;;;;1.70;1.05;;;10.70;94.80;;;;;;4995180;28;20041;-67
2022/12/29 08:17:22;;;;;;;1.75;1.10;;;10.80;94.50;;;;;;4995373;28;20021;-67
2022/12/29 08:19:48;;;;;;;2.60;1.17;;;10.80;94.40;;;;;;4985174;28;20903;-67
2022/12/29 08:22:15;;;;;;;2.78;0.90;;;10.80;94.60;;;;;;4989994;28;20030;-67
2022/12/29 08:24:40;;;;;;;1.05;0.80;;;10.80;94.70;;;;;;4995555;28;20045;-68
2022/12/29 08:27:06;;;;;;;1.88;0.85;;;10.90;94.60;;;;;;4994545;28;20038;-67
2022/12/29 08:29:32;;;;;;;2.72;0.85;;;10.90;94.40;;;;;;4988893;28;20021;-67
2022/12/29 08:31:58;;;;;;;1.98;0.93;;;11.00;94.20;;;;;;4987831;28;20034;-67
2022/12/29 08:34:23;;;;;;;1.05;0.90;;;10.90;94.50;;;;;;4993743;28;20652;-67
2022/12/29 08:36:49;;;;;;;4.30;1.70;;;10.80;94.70;;;;;;4993139;28;20049;-67
2022/12/29 08:39:15;;;;;;;2.15;0.63;;;10.90;94.80;;;;;;4992867;28;20037;-67
2022/12/29 08:41:41;;;;;;;0.95;0.80;;;11.00;94.70;;;;;;4991799;28;20030;-67
2022/12/29 08:44:07;;;;;;;1.73;0.77;;;11.10;94.40;;;;;;4992408;28;20566;-67
2022/12/29 08:46:33;;;;;;;0.75;0.73;;;11.20;94.30;;;;;;4997338;28;20027;-67
2022/12/29 08:48:59;;;;;;;1.90;0.70;;;11.30;93.90;;;;;;4991287;28;20038;-67
2022/12/29 08:51:25;;;;;;;1.67;0.80;;;11.40;93.80;;;;;;4988383;28;20026;-67
2022/12/29 08:53:51;;;;;;;1.67;0.80;;;11.50;93.60;;;;;;4991133;28;20541;-67
2022/12/29 08:56:17;;;;;;;1.52;1.05;;;11.60;93.30;;;;;;4991943;28;20040;-66
2022/12/29 08:58:48;;;;;;;2.92;0.93;;;11.60;93.00;;;;;;5021337;28;20026;-67
2022/12/29 09:01:16;;;;;;;1.02;0.80;;;11.70;93.10;;;;;;4990167;28;20057;-66
2022/12/29 09:03:42;;;;;;;2.20;1.30;;;11.50;93.30;;;;;;4990036;28;20405;-67
2022/12/29 09:06:08;;;;;;;1.85;1.38;;;11.60;93.40;;;;;;4993373;28;20109;-67
2022/12/29 09:08:33;;;;;;;3.03;0.77;;;11.50;93.20;;;;;;4989964;28;20044;-67
2022/12/29 09:11:13;;;;;;;2.20;0.75;;;11.60;93.20;;;;;;4992201;28;20034;-66
2022/12/29 09:13:39;;;;;;;0.70;0.60;;;11.80;92.90;;;;;;4989457;28;20022;-67
2022/12/29 09:16:05;;;;;;;1.23;0.80;;;12.70;91.60;;;;;;4994971;28;20386;-67
2022/12/29 09:18:31;;;;;;;1.00;0.68;;;13.80;88.60;;;;;;4989649;28;20065;-67
2022/12/29 09:21:02;;;;;;;1.83;1.10;;;14.80;84.40;;;;;;4989378;28;20092;-67
2022/12/29 09:23:29;;;;;;;4.78;0.90;;;15.40;80.20;;;;;;5000974;28;20038;-67
2022/12/29 09:25:54;;;;;;;2.65;0.90;;;16.40;77.10;;;;;;4991622;28;20094;-67
2022/12/29 09:28:21;;;;;;;1.27;0.95;;;16.70;72.80;;;;;;4986769;28;20038;-67
2022/12/29 09:30:47;;;;;;;2.33;0.93;;;16.30;74.40;;;;;;4990575;28;20030;-67
2022/12/29 09:33:13;;;;;;;1.67;0.95;;;15.30;77.90;;;;;;4998741;28;20148;-67
2022/12/29 09:35:50;;;;;;;1.80;0.85;;;14.20;82.10;;;;;;4990988;28;20520;-67
2022/12/29 09:38:16;;;;;;;1.77;0.77;;;13.90;84.20;;;;;;4996666;28;20033;-67
2022/12/29 09:40:46;;;;;;;1.25;0.90;;;13.80;86.10;;;;;;4990539;28;20034;-67
2022/12/29 09:43:33;;;;;;;1.67;0.80;;;14.20;85.20;;;;;;4989281;28;20033;-67
2022/12/29 09:46:18;;;;;;;0.90;0.80;;;15.60;79.20;;;;;;4989910;28;20113;-67
2022/12/29 09:48:49;;;;;;;1.50;0.68;;;16.40;75.20;;;;;;4992734;28;20099;-67
2022/12/29 09:51:18;;;;;;;0.98;0.85;;;15.90;75.70;;;;;;4991688;28;20141;-67
2022/12/29 09:53:57;;;;;;;2.67;1.42;;;14.90;80.30;;;;;;4989712;28;20023;-67
2022/12/29 09:56:24;;;;;;;1.80;0.90;;;14.30;83.20;;;;;;4988726;28;20026;-67
2022/12/29 09:59:04;;;;;;;7.18;2.72;;;14.60;82.70;;;;;;4996643;28;20116;-67
2022/12/29 10:01:41;;;;;;;2.80;0.90;;;15.10;80.60;;;;;;5020391;28;20030;-66
2022/12/29 10:04:07;;;;;;;2.25;0.70;;;15.10;80.10;;;;;;4992173;28;20057;-67
2022/12/29 10:06:43;;;;;;;2.70;1.77;;;14.90;81.80;;;;;;4991475;28;20030;-67
2022/12/29 10:09:17;;;;;;;0.77;0.60;;;14.90;81.30;;;;;;4989978;28;20846;-67
2022/12/29 10:11:49;;;;;;;0.75;0.57;;;14.70;81.50;;;;;;4989247;28;20781;-67
2022/12/29 10:14:45;;;;;;;0.95;0.68;;;14.50;82.80;;;;;;4992306;28;20030;-67
2022/12/29 10:17:29;;;;;;;3.67;0.90;;;14.30;83.30;;;;;;4995069;28;20029;-67
2022/12/29 10:20:26;;;;;;;1.60;0.75;;;13.60;87.20;;;;;;4987828;28;20030;-67
2022/12/29 10:23:14;;;;;;;1.98;1.10;;;13.60;87.80;;;;;;4990775;28;20040;-67
2022/12/29 10:25:42;;;;;;;1.33;0.70;;;14.00;86.40;;;;;;4991008;28;20050;-67
2022/12/29 10:28:22;;;;;;;1.42;0.60;;;14.00;85.60;;;;;;4994909;28;20505;-67
2022/12/29 10:30:50;;;;;;;3.03;1.52;;;13.90;86.30;;;;;;4991298;28;20034;-67
2022/12/29 10:33:25;;;;;;;2.50;0.80;;;13.50;88.70;;;;;;4994659;28;20030;-67
2022/12/29 10:35:51;;;;;;;1.13;0.90;;;13.20;89.30;;;;;;5001045;28;20088;-68
2022/12/29 10:39:03;;;;;;;3.92;0.80;;;13.00;90.20;;;;;;4990901;28;20795;-67
2022/12/29 10:41:39;;;;;;;1.73;0.80;;;12.80;90.70;;;;;;4976725;28;20200;-67
2022/12/29 10:44:12;;;;;;;1.73;0.65;;;12.80;91.00;;;;;;4994115;28;20491;-67
2022/12/29 10:46:38;;;;;;;1.33;0.95;;;12.80;91.60;;;;;;5019164;28;20121;-67
2022/12/29 10:49:12;;;;;;;1.17;0.65;;;12.70;91.50;;;;;;4989468;28;20046;-67
2022/12/29 10:51:42;;;;;;;4.28;1.20;;;12.70;91.30;;;;;;4985162;28;20530;-67
2022/12/29 10:54:28;;;;;;;2.28;0.70;;;12.70;91.60;;;;;;4990529;28;20037;-67
2022/12/29 10:57:05;;;;;;;2.10;0.70;;;12.70;91.60;;;;;;4991716;28;20026;-67
2022/12/29 10:59:35;;;;;;;1.17;0.60;;;12.70;91.80;;;;;;4989580;28;20065;-67
2022/12/29 11:02:06;;;;;;;1.88;0.88;;;12.80;91.80;;;;;;4990296;28;20130;-67
2022/12/29 11:04:40;;;;;;;1.92;0.80;;;12.80;92.00;;;;;;5019144;28;20027;-67
2022/12/29 11:07:07;;;;;;;2.13;0.98;;;12.70;92.00;;;;;;4984868;28;20573;-67
2022/12/29 11:09:36;;;;;;;1.60;1.27;;;12.60;92.20;;;;;;4986013;28;20034;-67
2022/12/29 11:12:23;;;;;;;4.45;0.80;;;12.60;92.40;;;;;;4992836;28;20095;-67
2022/12/29 11:15:07;;;;;;;2.00;0.70;;;12.60;92.50;;;;;;4995208;28;20084;-67
2022/12/29 11:17:57;;;;;;;3.10;0.75;;;12.50;92.80;;;;;;4992719;28;20029;-67
2022/12/29 11:20:38;;;;;;;1.83;1.15;;;12.40;93.60;;;;;;4983048;28;20443;-67
2022/12/29 11:23:31;;;;;;;1.85;0.70;;;12.30;93.90;;;;;;4988611;28;20046;-67
2022/12/29 11:26:15;;;;;;;1.17;0.80;;;12.20;94.40;;;;;;4990884;28;20090;-67
2022/12/29 11:28:46;;;;;;;0.82;0.70;;;12.30;94.10;;;;;;4987723;28;20034;-67
2022/12/29 11:31:17;;;;;;;2.67;1.13;;;12.40;93.80;;;;;;4989098;28;20030;-66
2022/12/29 11:33:42;;;;;;;2.53;0.90;;;12.50;93.60;;;;;;4991850;28;20505;-68
2022/12/29 11:36:22;;;;;;;4.47;0.50;;;12.30;93.70;;;;;;4993401;28;20030;-67
2022/12/29 11:38:55;;;;;;;1.35;0.80;;;12.20;93.90;;;;;;4988190;28;20030;-66
2022/12/29 11:41:32;;;;;;;0.77;0.47;;;12.20;94.20;;;;;;4990705;28;20033;-67
2022/12/29 11:44:05;;;;;;;0.75;0.70;;;12.10;94.70;;;;;;4985893;28;20171;-66
2022/12/29 11:46:38;;;;;;;1.92;0.88;;;12.00;95.90;;;;;;4992359;28;20050;-66
2022/12/29 11:49:05;;;;;;;1.33;0.82;;;11.80;97.00;;;;;;4990589;28;20030;-66
2022/12/29 11:51:46;;;;;;;0.60;0.50;;;11.70;98.10;;;;;;4988651;28;20348;-67
2022/12/29 11:54:22;;;;;;;0.80;0.68;;;11.50;98.70;;;;;;4989193;28;20033;-70
2022/12/29 11:56:49;;;;;;;1.15;0.70;;;11.40;99.60;;;;;;4989437;28;20073;-67
2022/12/29 11:59:43;;;;;;;2.75;0.70;;;11.20;99.90;;;;;;4988885;28;20037;-67
2022/12/29 12:02:15;;;;;;;1.27;0.70;;;11.00;99.90;;;;;;4987386;28;20117;-67
2022/12/29 12:04:41;;;;;;;2.72;0.63;;;10.90;99.90;;;;;;4992473;28;20081;-70
2022/12/29 12:07:36;;;;;;;0.63;0.63;;;10.80;99.90;;;;;;5013221;28;20037;-70
2022/12/29 12:10:04;;;;;;;15.85;8.98;;;10.80;99.90;;;;;;4988923;28;20030;-70
2022/12/29 12:12:58;;;;;;;1.30;0.70;;;10.80;99.90;;;;;;4991222;28;20056;-70
2022/12/29 12:15:39;;;;;;;0.70;0.70;;;10.90;99.90;;;;;;5018244;28;20022;-67
2022/12/29 12:18:24;;;;;;;1.00;1.00;;;10.90;99.90;;;;;;5018381;28;20097;-67
2022/12/29 12:21:01;;;;;;;1.23;0.60;;;11.10;99.90;;;;;;4994706;28;20474;-67
2022/12/29 12:23:38;;;;;;;3.58;0.63;;;11.00;99.90;;;;;;4996757;28;20042;-68
2022/12/29 12:26:11;;;;;;;2.58;1.30;;;10.90;99.90;;;;;;4994249;28;20057;-67
2022/12/29 12:28:45;;;;;;;5.60;0.60;;;10.90;99.90;;;;;;5000108;28;20446;-70
2022/12/29 12:31:32;;;;;;;0.95;0.63;;;10.80;99.90;;;;;;4997313;28;20054;-67
2022/12/29 12:34:02;;;;;;;2.17;1.38;;;10.90;99.70;;;;;;4996097;28;20025;-68
2022/12/29 12:36:49;;;;;;;3.30;1.40;;;10.90;99.80;;;;;;4996396;28;20034;-69
2022/12/29 12:39:29;;;;;;;2.22;1.40;;;11.10;99.00;;;;;;4993005;28;20863;-69
2022/12/29 12:42:18;;;;;;;1.55;1.00;;;11.20;98.70;;;;;;4996311;28;20041;-69
2022/12/29 12:44:57;;;;;;;1.30;0.82;;;11.30;98.30;;;;;;4994768;28;20076;-69
2022/12/29 12:47:26;;;;;;;1.63;1.10;;;11.30;98.10;;;;;;4999423;28;20490;-69
2022/12/29 12:49:58;;;;;;;1.98;0.85;;;11.50;98.00;;;;;;4999020;28;20046;-67
2022/12/29 12:53:01;;;;;;;2.25;0.80;;;11.50;97.70;;;;;;5011441;28;20620;-69
2022/12/29 12:55:42;;;;;;;0.52;0.40;;;11.60;97.90;;;;;;4998461;28;20185;-67
2022/12/29 12:58:14;;;;;;;0.40;0.40;;;11.60;97.80;;;;;;4992500;28;20030;-69
2022/12/29 13:00:58;;;;;;;0.95;0.60;;;11.60;97.80;;;;;;4993242;28;20042;-67
2022/12/29 13:04:04;;;;;;;2.13;1.02;;;11.50;98.10;;;;;;4995980;28;20069;-68
2022/12/29 13:06:58;;;;;;;0.50;0.50;;;11.50;98.60;;;;;;5000755;28;20037;-69
2022/12/29 13:09:43;;;;;;;0.98;0.50;;;11.50;98.40;;;;;;4997425;28;20117;-69
2022/12/29 13:12:52;;;;;;;0.90;0.70;;;11.40;98.60;;;;;;4996064;28;20045;-68
2022/12/29 13:15:40;;;;;;;1.15;0.40;;;11.40;98.60;;;;;;4991852;28;20108;-69
2022/12/29 13:18:17;;;;;;;0.50;0.40;;;11.50;98.30;;;;;;4994292;28;20058;-69
2022/12/29 13:21:04;;;;;;;0.70;0.70;;;11.40;98.80;;;;;;4997708;28;20099;-69
2022/12/29 13:23:37;;;;;;;0.60;0.60;;;11.50;98.70;;;;;;5003349;28;20042;-69
2022/12/29 13:26:23;;;;;;;0.40;0.40;;;11.40;98.80;;;;;;5001012;28;20058;-69
2022/12/29 13:28:59;;;;;;;;;;;11.40;98.80;;;;;;5001678;28;20438;-69
2022/12/29 13:31:32;;;;;;;0.98;0.70;;;11.40;98.90;;;;;;4998539;28;19918;-68
2022/12/29 13:34:05;;;;;;;0.88;0.45;;;11.40;98.90;;;;;;5000355;28;20112;-69
2022/12/29 13:36:51;;;;;;;0.73;0.65;;;11.40;99.00;;;;;;4996519;28;20034;-69
2022/12/29 13:39:22;;;;;;;0.90;0.50;;;11.50;99.00;;;;;;4994620;28;20045;-68
2022/12/29 13:41:54;;;;;;;1.05;0.60;;;11.40;98.80;;;;;;4999788;28;20037;-69
2022/12/29 13:44:31;;;;;;;1.17;0.55;;;11.40;99.10;;;;;;5002417;28;20056;-69
2022/12/29 13:47:02;;;;;;;0.50;0.50;;;11.40;99.10;;;;;;4999456;28;20044;-69
2022/12/29 13:49:29;;;;;;;1.35;0.65;;;11.40;99.10;;;;;;4999520;28;20030;-69
2022/12/29 13:52:07;;;;;;;0.60;0.60;;;11.50;98.80;;;;;;4996638;28;20053;-69
2022/12/29 13:54:44;;;;;;;0.95;0.70;;;11.50;98.80;;;;;;4995389;28;20026;-69
2022/12/29 13:57:43;;;;;;;0.82;0.60;;;11.50;98.60;;;;;;4994060;28;20023;-69